sensor_id;sensor_type;location;lat;lon;timestamp;P1;durP1;ratioP1;P2;durP2;ratioP2
4464;SDS011;2245;48.136;13.428;2022-12-20T00:01:05;46.67;;;19.03;;
4464;SDS011;2245;48.136;13.428;2022-12-20T00:03:33;46.50;;;21.03;;
4464;SDS011;2245;48.136;13.428;2022-12-20T00:06:00;45.87;;;19.67;;
4464;SDS011;2245;48.136;13.428;2022-12-20T00:08:27;49.70;;;21.60;;
4464;SDS011;2245;48.136;13.428;2022-12-20T00:10:54;49.17;;;21.63;;
4464;SDS011;2245;48.136;13.428;2022-12-20T00:13:21;58.43;;;22.70;;
4464;SDS011;2245;48.136;13.428;2022-12-20T00:15:49;46.27;;;20.73;;
4464;SDS011;2245;48.136;13.428;2022-12-20T00:18:16;59.20;;;22.63;;
4464;SDS011;2245;48.136;13.428;2022-12-20T00:20:43;57.50;;;24.27;;
4464;SDS011;2245;48.136;13.428;2022-12-20T00:23:10;63.77;;;23.80;;
4464;SDS011;2245;48.136;13.428;2022-12-20T00:25:37;58.37;;;24.30;;
4464;SDS011;2245;48.136;13.428;2022-12-20T00:28:04;58.20;;;22.80;;
4464;SDS011;2245;48.136;13.428;2022-12-20T00:30:31;49.87;;;22.10;;
4464;SDS011;2245;48.136;13.428;2022-12-20T00:32:59;55.60;;;21.00;;
4464;SDS011;2245;48.136;13.428;2022-12-20T00:35:26;32.50;;;16.10;;
4464;SDS011;2245;48.136;13.428;2022-12-20T00:37:53;39.20;;;17.27;;
4464;SDS011;2245;48.136;13.428;2022-12-20T00:40:20;37.50;;;16.13;;
4464;SDS011;2245;48.136;13.428;2022-12-20T00:42:46;41.17;;;19.27;;
4464;SDS011;2245;48.136;13.428;2022-12-20T00:45:13;39.80;;;19.17;;
4464;SDS011;2245;48.136;13.428;2022-12-20T00:47:40;35.03;;;17.60;;
4464;SDS011;2245;48.136;13.428;2022-12-20T00:50:09;46.47;;;17.33;;
4464;SDS011;2245;48.136;13.428;2022-12-20T00:52:36;35.33;;;17.80;;
4464;SDS011;2245;48.136;13.428;2022-12-20T00:55:03;32.30;;;15.50;;
4464;SDS011;2245;48.136;13.428;2022-12-20T00:57:30;38.13;;;16.23;;
4464;SDS011;2245;48.136;13.428;2022-12-20T00:59:57;38.43;;;16.70;;
4464;SDS011;2245;48.136;13.428;2022-12-20T01:02:24;33.73;;;16.97;;
4464;SDS011;2245;48.136;13.428;2022-12-20T01:04:51;40.80;;;18.07;;
4464;SDS011;2245;48.136;13.428;2022-12-20T01:07:19;32.87;;;15.47;;
4464;SDS011;2245;48.136;13.428;2022-12-20T01:09:47;43.83;;;19.00;;
4464;SDS011;2245;48.136;13.428;2022-12-20T01:12:14;54.10;;;22.33;;
4464;SDS011;2245;48.136;13.428;2022-12-20T01:14:41;64.87;;;24.87;;
4464;SDS011;2245;48.136;13.428;2022-12-20T01:17:08;92.23;;;34.60;;
4464;SDS011;2245;48.136;13.428;2022-12-20T01:19:35;75.70;;;33.40;;
4464;SDS011;2245;48.136;13.428;2022-12-20T01:22:01;73.07;;;28.60;;
4464;SDS011;2245;48.136;13.428;2022-12-20T01:24:30;71.77;;;27.27;;
4464;SDS011;2245;48.136;13.428;2022-12-20T01:26:57;54.03;;;25.27;;
4464;SDS011;2245;48.136;13.428;2022-12-20T01:29:24;52.23;;;22.50;;
4464;SDS011;2245;48.136;13.428;2022-12-20T01:31:50;52.97;;;20.20;;
4464;SDS011;2245;48.136;13.428;2022-12-20T01:34:18;47.37;;;21.30;;
4464;SDS011;2245;48.136;13.428;2022-12-20T01:36:45;51.53;;;22.83;;
4464;SDS011;2245;48.136;13.428;2022-12-20T01:39:14;51.30;;;23.47;;
4464;SDS011;2245;48.136;13.428;2022-12-20T01:41:44;54.53;;;22.10;;
4464;SDS011;2245;48.136;13.428;2022-12-20T01:47:14;49.77;;;21.27;;
4464;SDS011;2245;48.136;13.428;2022-12-20T01:49:41;46.43;;;19.97;;
4464;SDS011;2245;48.136;13.428;2022-12-20T01:52:10;60.20;;;22.43;;
4464;SDS011;2245;48.136;13.428;2022-12-20T01:54:39;53.03;;;22.00;;
4464;SDS011;2245;48.136;13.428;2022-12-20T01:57:10;60.50;;;23.80;;
4464;SDS011;2245;48.136;13.428;2022-12-20T01:59:39;58.80;;;24.60;;
4464;SDS011;2245;48.136;13.428;2022-12-20T02:02:07;56.53;;;23.83;;
4464;SDS011;2245;48.136;13.428;2022-12-20T02:04:35;65.20;;;27.20;;
4464;SDS011;2245;48.136;13.428;2022-12-20T02:07:02;56.60;;;25.20;;
4464;SDS011;2245;48.136;13.428;2022-12-20T02:09:30;52.47;;;23.30;;
4464;SDS011;2245;48.136;13.428;2022-12-20T02:12:01;47.07;;;21.93;;
4464;SDS011;2245;48.136;13.428;2022-12-20T02:17:30;53.30;;;21.77;;
4464;SDS011;2245;48.136;13.428;2022-12-20T02:20:21;56.30;;;24.73;;
4464;SDS011;2245;48.136;13.428;2022-12-20T02:23:15;58.47;;;23.67;;
4464;SDS011;2245;48.136;13.428;2022-12-20T02:26:06;53.87;;;22.77;;
4464;SDS011;2245;48.136;13.428;2022-12-20T02:28:46;63.33;;;23.90;;
4464;SDS011;2245;48.136;13.428;2022-12-20T02:31:24;48.87;;;20.50;;
4464;SDS011;2245;48.136;13.428;2022-12-20T02:33:53;52.33;;;22.97;;
4464;SDS011;2245;48.136;13.428;2022-12-20T02:36:21;50.93;;;23.83;;
4464;SDS011;2245;48.136;13.428;2022-12-20T02:38:50;48.23;;;21.90;;
4464;SDS011;2245;48.136;13.428;2022-12-20T02:41:18;58.33;;;22.30;;
4464;SDS011;2245;48.136;13.428;2022-12-20T02:43:48;50.57;;;23.77;;
4464;SDS011;2245;48.136;13.428;2022-12-20T02:46:36;56.53;;;23.00;;
4464;SDS011;2245;48.136;13.428;2022-12-20T02:49:05;54.87;;;23.27;;
4464;SDS011;2245;48.136;13.428;2022-12-20T02:51:35;44.03;;;21.97;;
4464;SDS011;2245;48.136;13.428;2022-12-20T02:54:02;50.27;;;21.87;;
4464;SDS011;2245;48.136;13.428;2022-12-20T02:56:31;62.63;;;23.50;;
4464;SDS011;2245;48.136;13.428;2022-12-20T02:59:01;55.57;;;24.80;;
4464;SDS011;2245;48.136;13.428;2022-12-20T03:01:33;50.20;;;22.40;;
4464;SDS011;2245;48.136;13.428;2022-12-20T03:04:04;52.57;;;24.70;;
4464;SDS011;2245;48.136;13.428;2022-12-20T03:06:32;56.83;;;23.07;;
4464;SDS011;2245;48.136;13.428;2022-12-20T03:08:59;53.90;;;23.40;;
4464;SDS011;2245;48.136;13.428;2022-12-20T03:11:26;55.43;;;23.37;;
4464;SDS011;2245;48.136;13.428;2022-12-20T03:13:52;49.57;;;21.90;;
4464;SDS011;2245;48.136;13.428;2022-12-20T03:16:19;50.10;;;23.60;;
4464;SDS011;2245;48.136;13.428;2022-12-20T03:18:48;53.07;;;22.17;;
4464;SDS011;2245;48.136;13.428;2022-12-20T03:21:14;51.57;;;23.37;;
4464;SDS011;2245;48.136;13.428;2022-12-20T03:23:41;54.90;;;23.30;;
4464;SDS011;2245;48.136;13.428;2022-12-20T03:26:08;54.60;;;23.60;;
4464;SDS011;2245;48.136;13.428;2022-12-20T03:28:35;50.30;;;23.17;;
4464;SDS011;2245;48.136;13.428;2022-12-20T03:31:02;54.77;;;24.07;;
4464;SDS011;2245;48.136;13.428;2022-12-20T03:33:29;72.50;;;23.40;;
4464;SDS011;2245;48.136;13.428;2022-12-20T03:35:57;62.23;;;23.00;;
4464;SDS011;2245;48.136;13.428;2022-12-20T03:38:24;48.70;;;21.60;;
4464;SDS011;2245;48.136;13.428;2022-12-20T03:40:51;50.37;;;22.57;;
4464;SDS011;2245;48.136;13.428;2022-12-20T03:43:18;54.00;;;25.03;;
4464;SDS011;2245;48.136;13.428;2022-12-20T03:45:44;54.50;;;23.03;;
4464;SDS011;2245;48.136;13.428;2022-12-20T03:48:11;68.00;;;23.83;;
4464;SDS011;2245;48.136;13.428;2022-12-20T03:50:38;51.87;;;21.50;;
4464;SDS011;2245;48.136;13.428;2022-12-20T03:53:06;45.67;;;20.17;;
4464;SDS011;2245;48.136;13.428;2022-12-20T03:55:33;54.90;;;22.23;;
4464;SDS011;2245;48.136;13.428;2022-12-20T03:58:00;39.97;;;20.30;;
4464;SDS011;2245;48.136;13.428;2022-12-20T04:00:27;63.30;;;23.53;;
4464;SDS011;2245;48.136;13.428;2022-12-20T04:02:54;50.60;;;21.27;;
4464;SDS011;2245;48.136;13.428;2022-12-20T04:05:21;45.97;;;19.43;;
4464;SDS011;2245;48.136;13.428;2022-12-20T04:07:48;46.23;;;20.20;;
4464;SDS011;2245;48.136;13.428;2022-12-20T04:10:16;51.77;;;19.87;;
4464;SDS011;2245;48.136;13.428;2022-12-20T04:12:43;50.77;;;20.53;;
4464;SDS011;2245;48.136;13.428;2022-12-20T04:15:10;52.40;;;20.33;;
4464;SDS011;2245;48.136;13.428;2022-12-20T04:17:37;47.00;;;20.20;;
4464;SDS011;2245;48.136;13.428;2022-12-20T04:20:04;48.93;;;19.83;;
4464;SDS011;2245;48.136;13.428;2022-12-20T04:22:44;42.17;;;17.13;;
4464;SDS011;2245;48.136;13.428;2022-12-20T04:25:11;43.30;;;18.83;;
4464;SDS011;2245;48.136;13.428;2022-12-20T04:27:39;44.37;;;19.00;;
4464;SDS011;2245;48.136;13.428;2022-12-20T04:30:06;44.27;;;18.57;;
4464;SDS011;2245;48.136;13.428;2022-12-20T04:32:34;50.57;;;18.47;;
4464;SDS011;2245;48.136;13.428;2022-12-20T04:35:01;44.23;;;17.80;;
4464;SDS011;2245;48.136;13.428;2022-12-20T04:37:28;44.03;;;18.13;;
4464;SDS011;2245;48.136;13.428;2022-12-20T04:39:55;51.07;;;18.83;;
4464;SDS011;2245;48.136;13.428;2022-12-20T04:42:24;42.63;;;17.70;;
4464;SDS011;2245;48.136;13.428;2022-12-20T04:44:52;41.63;;;18.73;;
4464;SDS011;2245;48.136;13.428;2022-12-20T04:47:19;53.30;;;18.60;;
4464;SDS011;2245;48.136;13.428;2022-12-20T04:49:46;41.50;;;18.03;;
4464;SDS011;2245;48.136;13.428;2022-12-20T04:52:13;57.60;;;18.80;;
4464;SDS011;2245;48.136;13.428;2022-12-20T04:54:53;39.57;;;18.13;;
4464;SDS011;2245;48.136;13.428;2022-12-20T04:57:20;35.93;;;16.83;;
4464;SDS011;2245;48.136;13.428;2022-12-20T04:59:47;39.23;;;19.80;;
4464;SDS011;2245;48.136;13.428;2022-12-20T05:02:16;47.10;;;18.03;;
4464;SDS011;2245;48.136;13.428;2022-12-20T05:04:43;45.43;;;18.70;;
4464;SDS011;2245;48.136;13.428;2022-12-20T05:07:09;42.20;;;18.30;;
4464;SDS011;2245;48.136;13.428;2022-12-20T05:09:36;44.10;;;17.23;;
4464;SDS011;2245;48.136;13.428;2022-12-20T05:12:03;39.37;;;19.33;;
4464;SDS011;2245;48.136;13.428;2022-12-20T05:14:30;52.00;;;20.30;;
4464;SDS011;2245;48.136;13.428;2022-12-20T05:16:57;40.97;;;17.60;;
4464;SDS011;2245;48.136;13.428;2022-12-20T05:19:26;52.10;;;18.80;;
4464;SDS011;2245;48.136;13.428;2022-12-20T05:21:53;48.47;;;20.93;;
4464;SDS011;2245;48.136;13.428;2022-12-20T05:24:37;52.80;;;16.93;;
4464;SDS011;2245;48.136;13.428;2022-12-20T05:27:21;43.33;;;18.27;;
4464;SDS011;2245;48.136;13.428;2022-12-20T05:29:48;45.17;;;19.03;;
4464;SDS011;2245;48.136;13.428;2022-12-20T05:32:15;49.77;;;18.90;;
4464;SDS011;2245;48.136;13.428;2022-12-20T05:34:43;56.67;;;20.57;;
4464;SDS011;2245;48.136;13.428;2022-12-20T05:37:10;52.57;;;20.57;;
4464;SDS011;2245;48.136;13.428;2022-12-20T05:39:37;48.23;;;17.87;;
4464;SDS011;2245;48.136;13.428;2022-12-20T05:42:04;38.13;;;17.97;;
4464;SDS011;2245;48.136;13.428;2022-12-20T05:44:31;49.97;;;20.17;;
4464;SDS011;2245;48.136;13.428;2022-12-20T05:46:58;49.70;;;21.80;;
4464;SDS011;2245;48.136;13.428;2022-12-20T05:49:25;41.43;;;20.60;;
4464;SDS011;2245;48.136;13.428;2022-12-20T05:51:53;61.67;;;23.57;;
4464;SDS011;2245;48.136;13.428;2022-12-20T05:54:20;56.10;;;23.17;;
4464;SDS011;2245;48.136;13.428;2022-12-20T05:56:47;52.83;;;20.87;;
4464;SDS011;2245;48.136;13.428;2022-12-20T05:59:14;49.43;;;20.20;;
4464;SDS011;2245;48.136;13.428;2022-12-20T06:01:41;46.13;;;21.60;;
4464;SDS011;2245;48.136;13.428;2022-12-20T06:04:08;58.30;;;22.30;;
4464;SDS011;2245;48.136;13.428;2022-12-20T06:06:35;49.43;;;22.50;;
4464;SDS011;2245;48.136;13.428;2022-12-20T06:09:04;54.70;;;21.50;;
4464;SDS011;2245;48.136;13.428;2022-12-20T06:11:31;54.33;;;22.93;;
4464;SDS011;2245;48.136;13.428;2022-12-20T06:13:58;58.77;;;25.47;;
4464;SDS011;2245;48.136;13.428;2022-12-20T06:16:25;53.17;;;22.77;;
4464;SDS011;2245;48.136;13.428;2022-12-20T06:18:52;49.47;;;22.30;;
4464;SDS011;2245;48.136;13.428;2022-12-20T06:21:19;51.93;;;21.90;;
4464;SDS011;2245;48.136;13.428;2022-12-20T06:23:46;61.80;;;24.13;;
4464;SDS011;2245;48.136;13.428;2022-12-20T06:26:17;57.50;;;24.17;;
4464;SDS011;2245;48.136;13.428;2022-12-20T06:28:44;43.70;;;23.93;;
4464;SDS011;2245;48.136;13.428;2022-12-20T06:31:16;54.43;;;24.23;;
4464;SDS011;2245;48.136;13.428;2022-12-20T06:33:43;48.90;;;22.67;;
4464;SDS011;2245;48.136;13.428;2022-12-20T06:36:10;59.40;;;25.63;;
4464;SDS011;2245;48.136;13.428;2022-12-20T06:38:37;38.33;;;14.33;;
4464;SDS011;2245;48.136;13.428;2022-12-20T06:41:04;52.60;;;22.03;;
4464;SDS011;2245;48.136;13.428;2022-12-20T06:43:32;52.10;;;20.60;;
4464;SDS011;2245;48.136;13.428;2022-12-20T06:45:59;51.73;;;20.23;;
4464;SDS011;2245;48.136;13.428;2022-12-20T06:48:26;43.97;;;20.47;;
4464;SDS011;2245;48.136;13.428;2022-12-20T06:50:53;56.23;;;22.70;;
4464;SDS011;2245;48.136;13.428;2022-12-20T06:53:20;62.67;;;22.17;;
4464;SDS011;2245;48.136;13.428;2022-12-20T06:55:47;47.27;;;21.17;;
4464;SDS011;2245;48.136;13.428;2022-12-20T06:58:14;53.83;;;23.93;;
4464;SDS011;2245;48.136;13.428;2022-12-20T07:00:42;42.50;;;18.63;;
4464;SDS011;2245;48.136;13.428;2022-12-20T07:03:09;61.67;;;24.17;;
4464;SDS011;2245;48.136;13.428;2022-12-20T07:05:36;43.33;;;20.93;;
4464;SDS011;2245;48.136;13.428;2022-12-20T07:08:03;45.67;;;19.90;;
4464;SDS011;2245;48.136;13.428;2022-12-20T07:10:32;47.77;;;21.20;;
4464;SDS011;2245;48.136;13.428;2022-12-20T07:12:59;45.60;;;21.83;;
4464;SDS011;2245;48.136;13.428;2022-12-20T07:15:26;50.77;;;20.50;;
4464;SDS011;2245;48.136;13.428;2022-12-20T07:17:54;56.07;;;21.67;;
4464;SDS011;2245;48.136;13.428;2022-12-20T07:20:21;39.37;;;18.67;;
4464;SDS011;2245;48.136;13.428;2022-12-20T07:22:48;48.60;;;20.23;;
4464;SDS011;2245;48.136;13.428;2022-12-20T07:25:15;48.63;;;22.93;;
4464;SDS011;2245;48.136;13.428;2022-12-20T07:27:44;57.83;;;21.77;;
4464;SDS011;2245;48.136;13.428;2022-12-20T07:30:12;49.77;;;21.37;;
4464;SDS011;2245;48.136;13.428;2022-12-20T07:32:39;49.27;;;18.63;;
4464;SDS011;2245;48.136;13.428;2022-12-20T07:35:08;51.87;;;25.50;;
4464;SDS011;2245;48.136;13.428;2022-12-20T07:37:35;48.67;;;19.57;;
4464;SDS011;2245;48.136;13.428;2022-12-20T07:40:03;52.17;;;22.00;;
4464;SDS011;2245;48.136;13.428;2022-12-20T07:42:30;60.27;;;21.30;;
4464;SDS011;2245;48.136;13.428;2022-12-20T07:44:57;40.83;;;17.73;;
4464;SDS011;2245;48.136;13.428;2022-12-20T07:47:24;169.50;;;58.00;;
4464;SDS011;2245;48.136;13.428;2022-12-20T07:49:51;109.07;;;40.60;;
4464;SDS011;2245;48.136;13.428;2022-12-20T07:52:20;60.67;;;24.17;;
4464;SDS011;2245;48.136;13.428;2022-12-20T07:54:49;58.40;;;21.30;;
4464;SDS011;2245;48.136;13.428;2022-12-20T07:57:20;66.87;;;25.80;;
4464;SDS011;2245;48.136;13.428;2022-12-20T07:59:50;79.87;;;34.00;;
4464;SDS011;2245;48.136;13.428;2022-12-20T08:02:21;85.60;;;37.20;;
4464;SDS011;2245;48.136;13.428;2022-12-20T08:04:52;105.47;;;42.40;;
4464;SDS011;2245;48.136;13.428;2022-12-20T08:07:24;105.23;;;42.40;;
4464;SDS011;2245;48.136;13.428;2022-12-20T08:09:52;80.50;;;29.47;;
4464;SDS011;2245;48.136;13.428;2022-12-20T08:12:19;59.13;;;25.23;;
4464;SDS011;2245;48.136;13.428;2022-12-20T08:14:47;65.90;;;25.57;;
4464;SDS011;2245;48.136;13.428;2022-12-20T08:17:20;49.47;;;19.80;;
4464;SDS011;2245;48.136;13.428;2022-12-20T08:19:47;53.43;;;19.97;;
4464;SDS011;2245;48.136;13.428;2022-12-20T08:22:15;51.87;;;23.57;;
4464;SDS011;2245;48.136;13.428;2022-12-20T08:24:44;51.53;;;19.60;;
4464;SDS011;2245;48.136;13.428;2022-12-20T08:27:11;53.10;;;20.00;;
4464;SDS011;2245;48.136;13.428;2022-12-20T08:29:39;49.13;;;18.50;;
4464;SDS011;2245;48.136;13.428;2022-12-20T08:32:06;42.83;;;18.90;;
4464;SDS011;2245;48.136;13.428;2022-12-20T08:34:33;50.73;;;19.77;;
4464;SDS011;2245;48.136;13.428;2022-12-20T08:37:00;53.83;;;19.73;;
4464;SDS011;2245;48.136;13.428;2022-12-20T08:39:27;41.10;;;18.20;;
4464;SDS011;2245;48.136;13.428;2022-12-20T08:41:55;39.27;;;16.63;;
4464;SDS011;2245;48.136;13.428;2022-12-20T08:44:22;49.77;;;16.97;;
4464;SDS011;2245;48.136;13.428;2022-12-20T08:46:49;41.00;;;16.23;;
4464;SDS011;2245;48.136;13.428;2022-12-20T08:49:18;63.13;;;20.20;;
4464;SDS011;2245;48.136;13.428;2022-12-20T08:51:45;50.50;;;19.70;;
4464;SDS011;2245;48.136;13.428;2022-12-20T08:54:12;69.53;;;26.17;;
4464;SDS011;2245;48.136;13.428;2022-12-20T08:56:38;47.43;;;21.03;;
4464;SDS011;2245;48.136;13.428;2022-12-20T08:59:07;52.13;;;22.60;;
4464;SDS011;2245;48.136;13.428;2022-12-20T09:01:34;42.67;;;18.97;;
4464;SDS011;2245;48.136;13.428;2022-12-20T09:04:01;43.47;;;18.03;;
4464;SDS011;2245;48.136;13.428;2022-12-20T09:06:28;39.87;;;18.00;;
4464;SDS011;2245;48.136;13.428;2022-12-20T09:08:55;42.40;;;17.37;;
4464;SDS011;2245;48.136;13.428;2022-12-20T09:11:24;44.67;;;17.63;;
4464;SDS011;2245;48.136;13.428;2022-12-20T09:13:52;49.70;;;18.27;;
4464;SDS011;2245;48.136;13.428;2022-12-20T09:16:22;37.93;;;16.47;;
4464;SDS011;2245;48.136;13.428;2022-12-20T09:18:50;42.33;;;17.50;;
4464;SDS011;2245;48.136;13.428;2022-12-20T09:21:17;49.43;;;18.63;;
4464;SDS011;2245;48.136;13.428;2022-12-20T09:23:45;52.23;;;20.53;;
4464;SDS011;2245;48.136;13.428;2022-12-20T09:26:13;46.87;;;20.20;;
4464;SDS011;2245;48.136;13.428;2022-12-20T09:28:43;38.37;;;17.17;;
4464;SDS011;2245;48.136;13.428;2022-12-20T09:31:10;41.30;;;18.30;;
4464;SDS011;2245;48.136;13.428;2022-12-20T09:33:40;49.17;;;19.40;;
4464;SDS011;2245;48.136;13.428;2022-12-20T09:36:09;44.03;;;18.47;;
4464;SDS011;2245;48.136;13.428;2022-12-20T09:38:37;48.27;;;19.50;;
4464;SDS011;2245;48.136;13.428;2022-12-20T09:41:04;58.83;;;18.60;;
4464;SDS011;2245;48.136;13.428;2022-12-20T09:43:32;45.97;;;20.27;;
4464;SDS011;2245;48.136;13.428;2022-12-20T09:46:00;51.33;;;21.73;;
4464;SDS011;2245;48.136;13.428;2022-12-20T09:48:29;44.47;;;17.57;;
4464;SDS011;2245;48.136;13.428;2022-12-20T09:51:03;51.83;;;20.20;;
4464;SDS011;2245;48.136;13.428;2022-12-20T09:53:36;56.43;;;19.30;;
4464;SDS011;2245;48.136;13.428;2022-12-20T09:56:10;44.67;;;18.30;;
4464;SDS011;2245;48.136;13.428;2022-12-20T09:58:46;49.00;;;17.70;;
4464;SDS011;2245;48.136;13.428;2022-12-20T10:01:23;53.27;;;19.30;;
4464;SDS011;2245;48.136;13.428;2022-12-20T10:03:51;43.37;;;16.67;;
4464;SDS011;2245;48.136;13.428;2022-12-20T10:06:22;52.13;;;18.70;;
4464;SDS011;2245;48.136;13.428;2022-12-20T10:08:56;54.67;;;20.80;;
4464;SDS011;2245;48.136;13.428;2022-12-20T10:17:06;141.93;;;45.17;;
4464;SDS011;2245;48.136;13.428;2022-12-20T10:19:45;177.03;;;50.50;;
4464;SDS011;2245;48.136;13.428;2022-12-20T10:22:22;168.87;;;53.27;;
4464;SDS011;2245;48.136;13.428;2022-12-20T10:24:52;53.17;;;22.90;;
4464;SDS011;2245;48.136;13.428;2022-12-20T10:27:23;60.83;;;21.37;;
4464;SDS011;2245;48.136;13.428;2022-12-20T10:29:50;54.40;;;21.17;;
4464;SDS011;2245;48.136;13.428;2022-12-20T10:32:18;43.30;;;14.53;;
4464;SDS011;2245;48.136;13.428;2022-12-20T10:34:49;50.43;;;18.47;;
4464;SDS011;2245;48.136;13.428;2022-12-20T10:37:21;32.20;;;14.87;;
4464;SDS011;2245;48.136;13.428;2022-12-20T10:39:48;45.97;;;20.07;;
4464;SDS011;2245;48.136;13.428;2022-12-20T10:42:24;39.83;;;18.07;;
4464;SDS011;2245;48.136;13.428;2022-12-20T10:44:54;53.83;;;18.93;;
4464;SDS011;2245;48.136;13.428;2022-12-20T10:47:23;48.70;;;18.90;;
4464;SDS011;2245;48.136;13.428;2022-12-20T10:50:06;42.50;;;21.37;;
4464;SDS011;2245;48.136;13.428;2022-12-20T10:52:35;33.87;;;14.53;;
4464;SDS011;2245;48.136;13.428;2022-12-20T10:55:03;50.03;;;16.53;;
4464;SDS011;2245;48.136;13.428;2022-12-20T10:58:01;50.47;;;18.47;;
4464;SDS011;2245;48.136;13.428;2022-12-20T11:00:30;48.67;;;20.80;;
4464;SDS011;2245;48.136;13.428;2022-12-20T11:03:01;49.10;;;22.80;;
4464;SDS011;2245;48.136;13.428;2022-12-20T11:05:31;54.37;;;21.40;;
4464;SDS011;2245;48.136;13.428;2022-12-20T11:08:06;54.53;;;20.27;;
4464;SDS011;2245;48.136;13.428;2022-12-20T11:10:35;47.63;;;20.20;;
4464;SDS011;2245;48.136;13.428;2022-12-20T11:13:02;47.03;;;18.60;;
4464;SDS011;2245;48.136;13.428;2022-12-20T11:15:30;38.93;;;17.97;;
4464;SDS011;2245;48.136;13.428;2022-12-20T11:17:58;34.40;;;14.97;;
4464;SDS011;2245;48.136;13.428;2022-12-20T11:20:29;36.77;;;15.90;;
4464;SDS011;2245;48.136;13.428;2022-12-20T11:23:05;40.50;;;17.60;;
4464;SDS011;2245;48.136;13.428;2022-12-20T11:25:44;44.73;;;19.00;;
4464;SDS011;2245;48.136;13.428;2022-12-20T11:28:28;40.77;;;16.50;;
4464;SDS011;2245;48.136;13.428;2022-12-20T11:31:03;45.27;;;17.90;;
4464;SDS011;2245;48.136;13.428;2022-12-20T11:33:40;44.53;;;18.87;;
4464;SDS011;2245;48.136;13.428;2022-12-20T11:36:20;38.90;;;15.80;;
4464;SDS011;2245;48.136;13.428;2022-12-20T11:38:56;36.20;;;13.87;;
4464;SDS011;2245;48.136;13.428;2022-12-20T11:41:26;38.00;;;15.90;;
4464;SDS011;2245;48.136;13.428;2022-12-20T11:44:05;45.43;;;17.87;;
4464;SDS011;2245;48.136;13.428;2022-12-20T11:46:40;41.40;;;16.47;;
4464;SDS011;2245;48.136;13.428;2022-12-20T11:49:31;39.47;;;16.60;;
4464;SDS011;2245;48.136;13.428;2022-12-20T11:52:08;43.60;;;17.73;;
4464;SDS011;2245;48.136;13.428;2022-12-20T11:54:40;57.13;;;22.77;;
4464;SDS011;2245;48.136;13.428;2022-12-20T11:57:12;47.50;;;16.50;;
4464;SDS011;2245;48.136;13.428;2022-12-20T11:59:43;43.80;;;17.50;;
4464;SDS011;2245;48.136;13.428;2022-12-20T12:02:13;46.13;;;20.73;;
4464;SDS011;2245;48.136;13.428;2022-12-20T12:04:44;47.07;;;16.93;;
4464;SDS011;2245;48.136;13.428;2022-12-20T12:07:15;49.87;;;19.03;;
4464;SDS011;2245;48.136;13.428;2022-12-20T12:09:47;47.20;;;16.93;;
4464;SDS011;2245;48.136;13.428;2022-12-20T12:12:18;37.33;;;17.10;;
4464;SDS011;2245;48.136;13.428;2022-12-20T12:14:49;47.00;;;17.60;;
4464;SDS011;2245;48.136;13.428;2022-12-20T12:17:23;48.70;;;17.83;;
4464;SDS011;2245;48.136;13.428;2022-12-20T12:19:53;43.73;;;18.13;;
4464;SDS011;2245;48.136;13.428;2022-12-20T12:22:23;36.93;;;16.20;;
4464;SDS011;2245;48.136;13.428;2022-12-20T12:24:56;46.03;;;18.27;;
4464;SDS011;2245;48.136;13.428;2022-12-20T12:27:26;47.17;;;17.07;;
4464;SDS011;2245;48.136;13.428;2022-12-20T12:29:53;47.50;;;18.80;;
4464;SDS011;2245;48.136;13.428;2022-12-20T12:32:23;41.60;;;19.30;;
4464;SDS011;2245;48.136;13.428;2022-12-20T12:34:58;32.57;;;15.33;;
4464;SDS011;2245;48.136;13.428;2022-12-20T12:37:40;47.93;;;18.63;;
4464;SDS011;2245;48.136;13.428;2022-12-20T12:40:36;44.53;;;18.33;;
4464;SDS011;2245;48.136;13.428;2022-12-20T12:46:18;41.33;;;17.83;;
4464;SDS011;2245;48.136;13.428;2022-12-20T12:48:49;45.83;;;19.90;;
4464;SDS011;2245;48.136;13.428;2022-12-20T12:51:24;51.07;;;17.60;;
4464;SDS011;2245;48.136;13.428;2022-12-20T12:54:00;54.23;;;20.20;;
4464;SDS011;2245;48.136;13.428;2022-12-20T12:56:38;39.30;;;17.20;;
4464;SDS011;2245;48.136;13.428;2022-12-20T12:59:18;40.00;;;18.57;;
4464;SDS011;2245;48.136;13.428;2022-12-20T13:01:48;49.10;;;18.73;;
4464;SDS011;2245;48.136;13.428;2022-12-20T13:04:25;43.07;;;19.10;;
4464;SDS011;2245;48.136;13.428;2022-12-20T13:06:57;50.87;;;19.00;;
4464;SDS011;2245;48.136;13.428;2022-12-20T13:09:35;47.33;;;19.00;;
4464;SDS011;2245;48.136;13.428;2022-12-20T13:18:30;43.50;;;18.03;;
4464;SDS011;2245;48.136;13.428;2022-12-20T13:21:16;51.90;;;20.30;;
4464;SDS011;2245;48.136;13.428;2022-12-20T13:27:15;48.67;;;20.70;;
4464;SDS011;2245;48.136;13.428;2022-12-20T13:35:57;53.23;;;20.47;;
4464;SDS011;2245;48.136;13.428;2022-12-20T13:38:47;46.47;;;19.47;;
4464;SDS011;2245;48.136;13.428;2022-12-20T13:41:30;45.17;;;18.70;;
4464;SDS011;2245;48.136;13.428;2022-12-20T13:44:16;45.53;;;18.43;;
4464;SDS011;2245;48.136;13.428;2022-12-20T13:46:49;50.73;;;21.40;;
4464;SDS011;2245;48.136;13.428;2022-12-20T13:49:21;59.03;;;21.80;;
4464;SDS011;2245;48.136;13.428;2022-12-20T13:52:04;45.83;;;17.83;;
4464;SDS011;2245;48.136;13.428;2022-12-20T13:54:33;50.40;;;20.20;;
4464;SDS011;2245;48.136;13.428;2022-12-20T13:57:01;54.83;;;19.10;;
4464;SDS011;2245;48.136;13.428;2022-12-20T13:59:32;41.47;;;16.47;;
4464;SDS011;2245;48.136;13.428;2022-12-20T14:01:59;42.40;;;18.03;;
4464;SDS011;2245;48.136;13.428;2022-12-20T14:04:38;40.30;;;17.60;;
4464;SDS011;2245;48.136;13.428;2022-12-20T14:07:07;43.57;;;17.80;;
4464;SDS011;2245;48.136;13.428;2022-12-20T14:09:36;39.87;;;16.03;;
4464;SDS011;2245;48.136;13.428;2022-12-20T14:12:03;41.83;;;18.30;;
4464;SDS011;2245;48.136;13.428;2022-12-20T14:14:35;44.07;;;18.30;;
4464;SDS011;2245;48.136;13.428;2022-12-20T14:17:15;37.07;;;16.60;;
4464;SDS011;2245;48.136;13.428;2022-12-20T14:19:44;44.97;;;20.50;;
4464;SDS011;2245;48.136;13.428;2022-12-20T14:22:11;54.57;;;18.63;;
4464;SDS011;2245;48.136;13.428;2022-12-20T14:24:38;44.33;;;19.37;;
4464;SDS011;2245;48.136;13.428;2022-12-20T14:27:07;34.40;;;14.83;;
4464;SDS011;2245;48.136;13.428;2022-12-20T14:29:35;45.30;;;19.07;;
4464;SDS011;2245;48.136;13.428;2022-12-20T14:32:01;44.30;;;16.53;;
4464;SDS011;2245;48.136;13.428;2022-12-20T14:34:30;53.27;;;18.20;;
4464;SDS011;2245;48.136;13.428;2022-12-20T14:39:54;46.17;;;16.47;;
4464;SDS011;2245;48.136;13.428;2022-12-20T14:42:28;44.33;;;14.20;;
4464;SDS011;2245;48.136;13.428;2022-12-20T14:45:14;43.60;;;17.80;;
4464;SDS011;2245;48.136;13.428;2022-12-20T14:47:46;39.53;;;17.50;;
4464;SDS011;2245;48.136;13.428;2022-12-20T14:50:16;42.83;;;16.07;;
4464;SDS011;2245;48.136;13.428;2022-12-20T14:52:45;39.13;;;16.50;;
4464;SDS011;2245;48.136;13.428;2022-12-20T14:55:13;46.30;;;17.17;;
4464;SDS011;2245;48.136;13.428;2022-12-20T14:57:43;44.63;;;16.80;;
4464;SDS011;2245;48.136;13.428;2022-12-20T15:00:20;48.87;;;16.10;;
4464;SDS011;2245;48.136;13.428;2022-12-20T15:02:50;42.83;;;17.17;;
4464;SDS011;2245;48.136;13.428;2022-12-20T15:08:18;45.50;;;15.67;;
4464;SDS011;2245;48.136;13.428;2022-12-20T15:10:47;56.00;;;18.70;;
4464;SDS011;2245;48.136;13.428;2022-12-20T15:13:17;42.23;;;18.40;;
4464;SDS011;2245;48.136;13.428;2022-12-20T15:15:45;54.63;;;18.07;;
4464;SDS011;2245;48.136;13.428;2022-12-20T15:18:13;44.73;;;16.93;;
4464;SDS011;2245;48.136;13.428;2022-12-20T15:20:40;44.40;;;15.93;;
4464;SDS011;2245;48.136;13.428;2022-12-20T15:23:11;40.97;;;18.83;;
4464;SDS011;2245;48.136;13.428;2022-12-20T15:25:41;43.20;;;18.27;;